Time;durP1;ratioP1;P1;durP2;ratioP2;P2;SDS_P1;SDS_P2;PMS_P1;PMS_P2;Temp;Humidity;BMP_temperature;BMP_pressure;BME280_temperature;BME280_humidity;BME280_pressure;Samples;Min_cycle;Max_cycle;Signal;HPM_P1;HPM_P2
2021/08/03 00:02:18;;;;;;;17.42;8.63;;;;;;;22.58;50.25;99306.91;6179589;23;20048;-75
2021/08/03 00:04:45;;;;;;;18.40;8.27;;;;;;;22.58;49.95;99306.91;6130091;23;20024;-74
2021/08/03 00:07:13;;;;;;;29.27;8.38;;;;;;;22.59;50.23;99308.59;6179897;22;20074;-76
2021/08/03 00:09:39;;;;;;;22.85;7.95;;;;;;;22.62;50.33;99308.19;6130437;23;20021;-75
2021/08/03 00:12:11;;;;;;;17.10;8.63;;;;;;;22.65;49.87;99308.63;6183734;23;20074;-75
2021/08/03 00:14:42;;;;;;;21.58;8.13;;;;;;;22.69;49.82;99303.63;6133809;23;20387;-75
2021/08/03 00:17:11;;;;;;;19.15;8.30;;;;;;;22.62;50.08;99305.47;6183015;23;20448;-74
2021/08/03 00:19:37;;;;;;;20.85;8.55;;;;;;;22.60;49.99;99308.38;6182708;23;20021;-74
2021/08/03 00:22:03;;;;;;;17.92;8.25;;;;;;;22.61;50.19;99301.06;6158659;23;20021;-75
2021/08/03 00:24:29;;;;;;;15.88;7.05;;;;;;;22.67;50.26;99308.44;6184011;23;20012;-75
2021/08/03 00:26:55;;;;;;;24.75;9.10;;;;;;;22.71;50.06;99301.53;6109045;23;20025;-74
2021/08/03 00:29:21;;;;;;;17.52;9.18;;;;;;;22.82;49.96;99303.69;6108701;23;20379;-76
2021/08/03 00:31:49;;;;;;;15.60;8.05;;;;;;;22.81;49.99;99301.16;6182808;23;20107;-74
2021/08/03 00:34:15;;;;;;;13.35;7.78;;;;;;;22.76;49.76;99307.22;6157910;23;20353;-75
2021/08/03 00:36:41;;;;;;;21.25;7.57;;;;;;;22.67;49.85;99305.69;6182589;22;20020;-75
2021/08/03 00:39:10;;;;;;;14.77;7.97;;;;;;;22.67;49.92;99311.16;6158419;23;20437;-74
2021/08/03 00:41:54;;;;;;;14.77;7.22;;;;;;;22.64;50.19;99311.53;6137982;23;20355;-78
2021/08/03 00:44:36;;;;;;;21.27;7.30;;;;;;;22.61;50.06;99311.97;6114244;23;20512;-75
2021/08/03 00:47:03;;;;;;;16.27;6.85;;;;;;;22.59;49.64;99325.78;6163206;23;20508;-74
2021/08/03 00:49:30;;;;;;;12.43;7.05;;;;;;;22.51;49.86;99321.34;6187580;23;20027;-77
2021/08/03 00:51:56;;;;;;;18.48;7.07;;;;;;;22.50;49.85;99322.38;6187202;23;20467;-75
2021/08/03 00:54:25;;;;;;;16.27;6.32;;;;;;;22.44;49.68;99314.16;6187329;23;20069;-76
2021/08/03 00:56:52;;;;;;;11.20;6.40;;;;;;;22.54;50.16;99322.81;6114951;23;20017;-74
2021/08/03 00:59:18;;;;;;;9.27;6.18;;;;;;;22.55;49.72;99325.34;6187636;23;20055;-74
2021/08/03 01:01:48;;;;;;;22.67;6.88;;;;;;;22.54;49.85;99318.22;6213716;23;20031;-75
2021/08/03 01:04:15;;;;;;;13.57;5.55;;;;;;;22.59;49.74;99314.03;6162709;23;20110;-76
2021/08/03 01:06:51;;;;;;;16.98;5.80;;;;;;;22.68;49.58;99312.81;6163012;23;20021;-77
2021/08/03 01:09:21;;;;;;;10.48;5.55;;;;;;;22.72;49.36;99316.84;6213868;23;20099;-77
2021/08/03 01:11:56;;;;;;;13.27;5.78;;;;;;;22.76;49.23;99316.25;6138575;23;20017;-79
2021/08/03 01:14:27;;;;;;;;;;;;;;;22.81;49.17;99329.25;6140555;23;20020;-79
2021/08/03 01:17:05;;;;;;;16.50;5.40;;;;;;;22.76;49.24;99321.69;6162892;23;19919;-78
2021/08/03 01:20:05;;;;;;;11.68;6.28;;;;;;;22.78;48.92;99329.66;6187327;23;20013;-78
2021/08/03 01:22:59;;;;;;;17.48;5.60;;;;;;;22.70;48.79;99319.75;6137820;23;20024;-76
2021/08/03 01:25:35;;;;;;;10.45;5.43;;;;;;;22.81;48.63;99325.69;6160937;23;20024;-76
2021/08/03 01:28:13;;;;;;;18.42;6.93;;;;;;;22.90;48.71;99332.63;6139360;23;20337;-74
2021/08/03 01:31:05;;;;;;;10.82;5.75;;;;;;;22.96;48.20;99332.72;6185617;23;20020;-74
2021/08/03 01:33:32;;;;;;;13.02;5.80;;;;;;;22.95;48.02;99341.94;6164039;23;20443;-75
2021/08/03 01:36:04;;;;;;;11.95;5.90;;;;;;;22.90;48.42;99344.38;6185372;23;20020;-75
2021/08/03 01:38:30;;;;;;;20.33;5.63;;;;;;;22.85;48.37;99337.88;6161084;23;20436;-74
2021/08/03 01:41:02;;;;;;;15.60;5.80;;;;;;;22.88;48.22;99346.47;6160531;23;20017;-74
2021/08/03 01:43:28;;;;;;;11.77;5.65;;;;;;;22.81;48.47;99336.59;6136529;23;20024;-75
2021/08/03 01:45:59;;;;;;;12.52;5.90;;;;;;;22.76;48.88;99342.66;6186299;23;20028;-76
2021/08/03 01:48:26;;;;;;;19.00;5.93;;;;;;;22.84;48.83;99339.75;6136313;23;20021;-76
2021/08/03 01:50:53;;;;;;;11.65;5.80;;;;;;;22.90;48.64;99330.75;6184950;23;20044;-76
2021/08/03 01:53:20;;;;;;;10.93;6.97;;;;;;;22.98;48.86;99327.91;6160648;23;20355;-77
2021/08/03 01:55:47;;;;;;;20.60;6.40;;;;;;;23.06;48.29;99331.50;6136484;23;20099;-80
2021/08/03 01:58:18;;;;;;;18.80;6.80;;;;;;;23.04;48.41;99337.16;6138555;23;20031;-77
2021/08/03 02:00:51;;;;;;;17.48;7.65;;;;;;;23.08;48.64;99335.69;6184611;23;20013;-77
2021/08/03 02:03:19;;;;;;;15.13;6.57;;;;;;;23.16;48.68;99334.66;6135924;23;20047;-75
2021/08/03 02:05:59;;;;;;;13.70;7.38;;;;;;;23.25;48.32;99336.19;6119686;23;20024;-77
2021/08/03 02:08:29;;;;;;;19.75;8.13;;;;;;;23.32;48.26;99342.50;6113167;23;20016;-77
2021/08/03 02:11:14;;;;;;;15.65;7.68;;;;;;;23.36;48.01;99338.31;6168576;23;20025;-75
2021/08/03 02:13:45;;;;;;;19.02;8.32;;;;;;;23.28;48.25;99338.47;6184922;23;20027;-75
2021/08/03 02:16:19;;;;;;;26.75;9.13;;;;;;;23.31;48.19;99357.16;6162660;23;20020;-76
2021/08/03 02:18:52;;;;;;;16.60;8.27;;;;;;;23.37;48.32;99360.97;6137506;23;20144;-77
2021/08/03 02:21:23;;;;;;;19.42;8.48;;;;;;;23.40;48.17;99352.38;6160497;23;20581;-77
2021/08/03 02:23:51;;;;;;;21.10;10.07;;;;;;;23.46;47.73;99351.53;6135989;23;20017;-78
2021/08/03 02:26:18;;;;;;;17.23;9.60;;;;;;;23.51;47.75;99352.63;6263433;22;20106;-77
2021/08/03 02:28:46;;;;;;;26.98;9.63;;;;;;;23.56;47.70;99354.72;6159698;23;20020;-78
2021/08/03 02:31:24;;;;;;;20.30;8.88;;;;;;;23.59;47.48;99353.47;6159734;23;20017;-77
2021/08/03 02:33:59;;;;;;;30.65;9.35;;;;;;;23.57;47.31;99350.09;6160882;23;20089;-78
2021/08/03 02:36:28;;;;;;;21.13;9.60;;;;;;;23.46;47.59;99336.00;6111582;23;20029;-79
2021/08/03 02:39:02;;;;;;;22.40;9.27;;;;;;;23.48;47.93;99342.13;6137867;23;20031;-76
2021/08/03 02:41:30;;;;;;;19.48;9.90;;;;;;;23.49;48.46;99332.88;6135493;23;20023;-79
2021/08/03 02:43:56;;;;;;;19.98;9.50;;;;;;;23.56;47.65;99324.72;6135515;23;20409;-78
2021/08/03 02:46:23;;;;;;;24.80;9.75;;;;;;;23.66;47.68;99344.28;6160491;23;20099;-79
2021/08/03 02:49:01;;;;;;;27.75;11.55;;;;;;;23.70;47.50;99351.00;6211113;23;20504;-79
2021/08/03 02:51:30;;;;;;;27.25;11.57;;;;;;;23.73;47.44;99352.47;6140869;23;20012;-82
2021/08/03 02:53:56;;;;;;;21.30;9.93;;;;;;;23.74;47.01;99348.72;6184839;23;20479;-78
2021/08/03 02:56:22;;;;;;;26.85;10.43;;;;;;;23.75;47.07;99344.94;6136342;23;20027;-77
2021/08/03 02:58:52;;;;;;;17.75;9.82;;;;;;;23.85;46.93;99348.09;6160039;23;20069;-78
2021/08/03 03:01:20;;;;;;;27.98;10.05;;;;;;;23.89;46.53;99353.97;6136330;23;20471;-78
2021/08/03 03:03:49;;;;;;;29.17;10.85;;;;;;;23.96;46.36;99349.38;6159993;23;20382;-87
2021/08/03 03:06:18;;;;;;;27.15;9.32;;;;;;;23.95;46.51;99345.78;6161010;23;20491;-81
2021/08/03 03:08:47;;;;;;;18.15;9.85;;;;;;;23.94;46.17;99346.81;6184632;23;20065;-78
2021/08/03 03:11:14;;;;;;;28.23;10.20;;;;;;;23.95;46.52;99344.94;6135496;23;20031;-77
2021/08/03 03:13:48;;;;;;;20.17;9.80;;;;;;;23.96;46.20;99344.75;6185311;23;20065;-78
2021/08/03 03:16:15;;;;;;;23.45;10.45;;;;;;;24.05;46.20;99352.72;6161080;23;20043;-79
2021/08/03 03:18:43;;;;;;;41.53;10.80;;;;;;;24.09;46.45;99353.97;6136739;23;20436;-79
2021/08/03 03:21:09;;;;;;;29.17;9.73;;;;;;;24.11;46.37;99351.88;6136072;23;20448;-80
2021/08/03 03:23:36;;;;;;;28.20;10.82;;;;;;;24.11;46.20;99355.47;6111468;23;20028;-81
2021/08/03 03:26:03;;;;;;;22.70;9.02;;;;;;;24.15;46.17;99356.72;6159683;23;20064;-79
2021/08/03 03:28:31;;;;;;;23.38;8.73;;;;;;;24.24;45.94;99351.88;6112254;23;20019;-81
2021/08/03 03:30:59;;;;;;;22.85;9.02;;;;;;;24.41;45.95;99353.16;6185801;23;20030;-81
2021/08/03 03:33:27;;;;;;;24.60;8.68;;;;;;;24.52;45.67;99350.81;6137960;23;20327;-83
2021/08/03 03:35:57;;;;;;;24.27;8.98;;;;;;;24.65;45.08;99353.53;6138955;23;20016;-84
2021/08/03 03:38:25;;;;;;;22.35;9.48;;;;;;;24.72;44.93;99346.16;6162254;23;20449;-87
2021/08/03 03:40:51;;;;;;;;;;;;;;;24.84;44.59;99349.06;6136172;23;20013;-78
2021/08/03 03:43:18;;;;;;;24.40;10.30;;;;;;;24.94;44.45;99346.72;6184268;23;19923;-79
2021/08/03 03:45:56;;;;;;;26.70;11.98;;;;;;;25.07;44.38;99345.81;6135741;23;20062;-79
2021/08/03 03:48:23;;;;;;;26.23;11.85;;;;;;;25.16;44.08;99350.00;6160006;23;20383;-78
2021/08/03 03:50:55;;;;;;;25.00;11.17;;;;;;;25.26;43.43;99355.88;6160458;23;20028;-81
2021/08/03 03:53:23;;;;;;;57.45;22.40;;;;;;;25.31;43.45;99353.34;6135868;23;20305;-77
2021/08/03 03:55:59;;;;;;;29.60;13.75;;;;;;;25.41;43.33;99352.84;6161027;23;20048;-81
2021/08/03 03:58:26;;;;;;;28.40;11.93;;;;;;;25.45;43.34;99345.88;6111206;23;20048;-82
2021/08/03 04:00:52;;;;;;;29.33;11.38;;;;;;;25.41;43.28;99348.22;6160284;23;20054;-80
2021/08/03 04:03:19;;;;;;;21.85;13.07;;;;;;;25.48;43.28;99352.81;6159524;23;20363;-79
2021/08/03 04:05:48;;;;;;;23.08;11.75;;;;;;;25.58;43.28;99348.56;6136490;23;20027;-77
2021/08/03 04:08:15;;;;;;;21.98;12.05;;;;;;;25.69;43.10;99344.28;6135557;23;20024;-79
2021/08/03 04:10:41;;;;;;;25.15;12.07;;;;;;;25.79;43.14;99344.63;6134987;23;20546;-78
2021/08/03 04:13:11;;;;;;;23.20;11.98;;;;;;;25.94;43.11;99346.22;6288039;22;20016;-77
2021/08/03 04:15:38;;;;;;;34.40;13.18;;;;;;;25.95;43.27;99347.91;6110675;23;20073;-83
2021/08/03 04:18:05;;;;;;;28.73;13.18;;;;;;;26.07;43.18;99346.13;6159811;23;20021;-83
2021/08/03 04:20:33;;;;;;;27.45;11.98;;;;;;;26.22;42.93;99349.38;6185085;23;20452;-79
2021/08/03 04:22:59;;;;;;;25.83;11.45;;;;;;;26.35;42.74;99349.25;6184453;23;20073;-78
2021/08/03 04:25:25;;;;;;;27.52;11.57;;;;;;;26.54;42.58;99360.28;6210271;23;20020;-80
2021/08/03 04:27:51;;;;;;;24.58;11.90;;;;;;;26.64;42.25;99358.69;6183955;23;20017;-79
2021/08/03 04:30:17;;;;;;;23.35;11.82;;;;;;;26.64;42.17;99349.63;6208388;23;20025;-80
2021/08/03 04:32:43;;;;;;;25.27;11.38;;;;;;;26.80;42.00;99349.03;6209566;23;20150;-82
2021/08/03 04:35:10;;;;;;;27.13;10.40;;;;;;;26.90;41.83;99345.75;6136925;23;20099;-82
2021/08/03 04:37:43;;;;;;;35.78;10.93;;;;;;;27.04;41.70;99351.91;6210609;23;20021;-79
2021/08/03 04:40:10;;;;;;;22.85;10.60;;;;;;;27.07;41.54;99344.06;6159658;23;20016;-81
2021/08/03 04:42:36;;;;;;;14.82;10.52;;;;;;;27.19;41.67;99348.81;6153940;23;20082;-79
2021/08/03 04:45:05;;;;;;;38.40;18.52;;;;;;;27.31;41.46;99336.84;6178433;23;20026;-78
2021/08/03 04:47:31;;;;;;;17.73;10.40;;;;;;;27.57;41.06;99340.28;6154432;23;20440;-80
2021/08/03 04:49:57;;;;;;;26.10;10.98;;;;;;;27.72;40.67;99348.94;6153972;23;20079;-82
2021/08/03 04:52:23;;;;;;;20.42;10.50;;;;;;;27.82;40.36;99349.19;6105602;23;20023;-80
2021/08/03 04:54:49;;;;;;;24.70;11.60;;;;;;;27.93;39.89;99346.72;6178458;23;20021;-80
2021/08/03 04:57:15;;;;;;;19.95;10.02;;;;;;;28.04;40.16;99340.41;6179939;23;20480;-79
2021/08/03 04:59:41;;;;;;;16.75;10.00;;;;;;;28.18;40.08;99341.88;6181397;23;20103;-79
2021/08/03 05:02:07;;;;;;;29.13;11.25;;;;;;;28.17;39.54;99342.09;6180191;23;20122;-80
2021/08/03 05:04:34;;;;;;;22.63;9.80;;;;;;;28.21;39.34;99340.53;6155102;23;20021;-78
2021/08/03 05:07:01;;;;;;;15.48;9.57;;;;;;;28.22;39.23;99332.06;6179759;23;20013;-81
2021/08/03 05:09:27;;;;;;;33.00;10.82;;;;;;;28.38;39.20;99329.72;6181628;23;20017;-81
2021/08/03 05:11:53;;;;;;;19.00;10.65;;;;;;;28.60;39.07;99340.97;6234257;23;20052;-80
2021/08/03 05:14:19;;;;;;;21.55;9.60;;;;;;;28.74;38.80;99328.63;6181653;23;20071;-81
2021/08/03 05:16:45;;;;;;;17.08;9.63;;;;;;;28.89;38.27;99330.88;6180069;23;20029;-79
2021/08/03 05:19:11;;;;;;;20.23;9.38;;;;;;;29.05;38.11;99319.13;6181549;23;20024;-78
2021/08/03 05:21:37;;;;;;;22.02;9.65;;;;;;;29.12;37.40;99319.84;6130635;23;20126;-79
2021/08/03 05:24:03;;;;;;;15.38;9.82;;;;;;;29.22;37.50;99322.75;6179676;23;20021;-79
2021/08/03 05:26:29;;;;;;;14.45;9.68;;;;;;;29.39;37.62;99319.25;6131103;23;20017;-79
2021/08/03 05:28:55;;;;;;;29.00;9.15;;;;;;;29.54;37.34;99314.03;6155352;23;20329;-80
2021/08/03 05:31:22;;;;;;;17.55;9.13;;;;;;;29.73;36.78;99314.69;6131198;23;20013;-80
2021/08/03 05:33:48;;;;;;;20.33;8.73;;;;;;;29.88;36.41;99301.16;6180098;23;20017;-79
2021/08/03 05:36:14;;;;;;;23.30;8.65;;;;;;;29.95;36.08;99295.50;6180058;23;20107;-79
2021/08/03 05:38:40;;;;;;;23.05;8.57;;;;;;;30.02;35.60;99301.66;6179550;23;20494;-79
2021/08/03 05:41:06;;;;;;;21.85;8.32;;;;;;;30.12;35.99;99301.81;6181497;23;20060;-78
2021/08/03 05:43:32;;;;;;;21.83;8.32;;;;;;;30.33;35.96;99296.66;6205294;23;20025;-79
2021/08/03 05:45:58;;;;;;;18.70;8.38;;;;;;;30.41;35.35;99297.06;6211732;23;20027;-80
2021/08/03 05:48:24;;;;;;;23.13;8.70;;;;;;;30.55;35.64;99294.78;6185241;23;20029;-78
2021/08/03 05:50:50;;;;;;;18.02;8.25;;;;;;;30.70;35.20;99297.75;6185274;23;20069;-78
2021/08/03 05:53:15;;;;;;;16.90;7.35;;;;;;;30.87;34.74;99291.34;6211634;23;20017;-78
2021/08/03 05:55:41;;;;;;;13.40;7.28;;;;;;;30.81;34.55;99292.41;6185118;23;20357;-77
2021/08/03 05:58:07;;;;;;;17.73;6.88;;;;;;;30.89;34.52;99290.03;6185149;23;20095;-79
2021/08/03 06:00:34;;;;;;;16.65;6.45;;;;;;;31.01;34.29;99278.84;6185350;23;20031;-78
2021/08/03 06:06:12;;;;;;;16.80;6.03;;;;;;;31.26;33.52;99266.44;6130595;23;20397;-80
2021/08/03 06:08:38;;;;;;;12.32;5.40;;;;;;;31.38;32.90;99272.66;6132995;23;20343;-79
2021/08/03 06:11:07;;;;;;;10.65;4.35;;;;;;;31.49;32.34;99265.31;6158077;23;20016;-77
2021/08/03 06:13:37;;;;;;;11.57;5.60;;;;;;;31.71;32.36;99266.06;6109156;23;20027;-77
2021/08/03 06:16:10;;;;;;;13.75;5.90;;;;;;;31.88;31.96;99252.13;6134649;23;20213;-78
2021/08/03 06:18:38;;;;;;;16.70;5.30;;;;;;;31.99;32.43;99251.09;6133875;23;20409;-78
2021/08/03 06:21:05;;;;;;;21.23;4.85;;;;;;;32.11;32.13;99246.22;6109156;23;20024;-80
2021/08/03 06:23:32;;;;;;;8.07;4.43;;;;;;;32.33;31.79;99248.00;6158079;23;20156;-77
2021/08/03 06:26:00;;;;;;;16.55;5.00;;;;;;;32.49;30.87;99235.94;6133627;23;20024;-80
2021/08/03 06:28:27;;;;;;;20.60;5.25;;;;;;;32.49;30.94;99235.94;6134105;23;20052;-78
2021/08/03 06:30:54;;;;;;;11.02;4.00;;;;;;;32.44;30.32;99230.41;6109317;23;20016;-78
2021/08/03 06:33:21;;;;;;;9.35;4.18;;;;;;;32.58;29.58;99228.81;6158115;23;20430;-80
2021/08/03 06:35:49;;;;;;;8.77;4.40;;;;;;;32.62;29.51;99224.41;6157664;23;20028;-77
2021/08/03 06:38:16;;;;;;;8.57;3.60;;;;;;;32.84;29.46;99231.69;6158323;23;20048;-78
2021/08/03 06:40:49;;;;;;;14.15;3.90;;;;;;;33.06;29.23;99228.72;6109465;23;20515;-78
2021/08/03 06:43:25;;;;;;;8.45;3.47;;;;;;;33.29;29.08;99213.56;6127667;23;20460;-79
2021/08/03 06:46:04;;;;;;;13.40;4.10;;;;;;;33.54;29.00;99224.69;6129191;23;20112;-77
2021/08/03 06:48:54;;;;;;;;;;;;;;;;;;;;;
2021/08/03 06:51:24;;;;;;;12.52;3.42;;;;;;;33.72;28.74;99219.69;6177440;23;20248;-78
2021/08/03 06:54:04;;;;;;;12.05;3.80;;;;;;;33.89;28.18;99214.72;6132452;23;20032;-79
2021/08/03 06:56:48;;;;;;;9.15;4.00;;;;;;;34.05;28.04;99213.59;6131159;23;20029;-79
2021/08/03 06:59:30;;;;;;;15.20;3.95;;;;;;;34.39;27.37;99212.13;6155546;23;20455;-79
2021/08/03 07:02:30;;;;;;;5.35;3.40;;;;;;;34.92;26.72;99221.63;6130487;23;20028;-76
2021/08/03 07:05:25;;;;;;;5.55;3.10;;;;;;;35.06;26.48;99210.78;6177187;23;20449;-78
2021/08/03 07:08:03;;;;;;;11.10;3.53;;;;;;;35.10;25.95;99211.03;6154094;23;20017;-78
2021/08/03 07:10:34;;;;;;;11.38;3.50;;;;;;;35.53;25.78;99208.53;6153697;23;20021;-79
2021/08/03 07:13:19;;;;;;;;;;;;;;;;;;;;;
2021/08/03 07:16:18;;;;;;;;;;;;;;;;;;;;;
2021/08/03 07:18:51;;;;;;;9.70;3.67;;;;;;;35.46;25.08;99197.69;6137296;23;20035;-78
2021/08/03 07:21:25;;;;;;;11.27;3.45;;;;;;;35.25;25.30;99217.31;6153524;23;20021;-77
2021/08/03 07:23:57;;;;;;;7.38;3.15;;;;;;;35.46;25.48;99225.50;6152549;23;20024;-80
2021/08/03 07:26:33;;;;;;;12.80;3.33;;;;;;;35.66;24.92;99222.59;6128700;23;20069;-79
2021/08/03 07:29:02;;;;;;;11.10;3.47;;;;;;;35.84;24.27;99225.75;6129754;23;20018;-76
2021/08/03 07:31:30;;;;;;;6.05;3.20;;;;;;;35.77;24.51;99226.13;6128875;23;20025;-76
2021/08/03 07:33:57;;;;;;;9.00;2.92;;;;;;;35.62;24.34;99215.97;6104091;23;20021;-79
2021/08/03 07:36:25;;;;;;;8.80;3.55;;;;;;;35.71;24.24;99218.94;6130303;23;20021;-78
2021/08/03 07:38:54;;;;;;;12.20;3.80;;;;;;;35.65;24.85;99195.06;6104139;23;20028;-79
2021/08/03 07:41:25;;;;;;;14.40;3.22;;;;;;;35.90;24.48;99203.19;6130302;23;20430;-76
2021/08/03 07:43:53;;;;;;;8.55;3.15;;;;;;;36.20;24.19;99202.06;6153889;23;20032;-79
2021/08/03 07:46:26;;;;;;;5.13;3.10;;;;;;;36.16;23.67;99189.88;6080060;23;20029;-81
2021/08/03 07:48:56;;;;;;;9.13;2.80;;;;;;;36.34;23.25;99191.06;6177170;23;20335;-79
2021/08/03 07:51:22;;;;;;;9.60;2.97;;;;;;;36.39;23.71;99182.66;6177143;23;20100;-79
2021/08/03 07:54:06;;;;;;;8.40;3.20;;;;;;;36.64;23.58;99195.47;6129711;23;20021;-78
2021/08/03 07:56:36;;;;;;;9.32;4.07;;;;;;;36.98;22.69;99188.06;6152508;23;20365;-82
2021/08/03 08:02:21;;;;;;;10.02;2.75;;;;;;;37.23;22.86;99207.19;6114967;23;20021;-85
2021/08/03 08:05:18;;;;;;;11.82;2.90;;;;;;;37.38;21.85;99197.75;6177238;23;20495;-80
2021/08/03 08:08:47;;;;;;;7.28;2.70;;;;;;;37.67;21.39;99194.81;6121416;23;20387;-79
2021/08/03 08:11:56;;;;;;;9.30;3.03;;;;;;;37.93;21.41;99181.25;6162017;23;20532;-81
2021/08/03 08:14:34;;;;;;;8.98;2.90;;;;;;;38.49;21.31;99176.56;6111987;23;20448;-84
2021/08/03 08:18:08;;;;;;;;;;;;;;;;;;;;;
2021/08/03 08:21:33;;;;;;;15.73;3.60;;;;;;;38.49;21.80;99171.81;6080735;23;20017;-81
2021/08/03 08:25:09;;;;;;;10.80;3.38;;;;;;;38.07;21.74;99198.03;6127930;23;20021;-83
2021/08/03 08:28:40;;;;;;;;;;;;;;;;;;;;;
2021/08/03 08:31:38;;;;;;;5.55;2.72;;;;;;;37.74;21.94;99192.44;6120169;23;20041;-81
2021/08/03 08:34:27;;;;;;;;;;;;;;;;;;;;;
2021/08/03 08:37:30;;;;;;;;;;;;;;;;;;;;;
2021/08/03 08:40:20;;;;;;;5.70;2.85;;;;;;;36.80;21.83;99176.59;6147314;23;20018;-81
2021/08/03 08:43:04;;;;;;;4.75;2.40;;;;;;;37.18;22.02;99159.88;6082017;23;20109;-80
2021/08/03 08:49:16;;;;;;;8.23;3.03;;;;;;;37.57;21.33;99179.06;6111026;23;20051;-78
2021/08/03 08:52:54;;;;;;;;;;;;;;;;;;;;;
2021/08/03 08:55:45;;;;;;;7.53;2.80;;;;;;;37.73;21.22;99151.75;6177771;23;20023;-78
2021/08/03 08:58:19;;;;;;;5.82;2.88;;;;;;;38.09;20.87;99148.28;6180778;23;20039;-87
2021/08/03 09:01:38;;;;;;;5.05;2.60;;;;;;;38.10;20.66;99141.56;6159228;23;20025;-79
2021/08/03 09:04:36;;;;;;;;;;;;;;;;;;;;;
2021/08/03 09:07:42;;;;;;;7.47;2.65;;;;;;;37.98;21.08;99149.63;6056999;23;20142;-82
2021/08/03 09:11:13;;;;;;;6.53;3.03;;;;;;;38.25;20.62;99148.81;6081366;23;20022;-82
2021/08/03 09:14:00;;;;;;;10.25;2.65;;;;;;;38.17;20.44;99144.78;6100300;23;20334;-81
2021/08/03 09:16:59;;;;;;;4.38;2.70;;;;;;;38.21;20.23;99151.41;6098252;23;20028;-79
2021/08/03 09:19:41;;;;;;;8.57;2.75;;;;;;;38.28;20.24;99129.47;6075754;23;20622;-78
2021/08/03 09:22:34;;;;;;;6.25;2.50;;;;;;;38.45;20.35;99147.63;6098775;23;20483;-81
2021/08/03 09:25:17;;;;;;;8.57;2.80;;;;;;;38.43;19.87;99133.13;6198820;23;20021;-80
2021/08/03 09:28:03;;;;;;;11.27;2.90;;;;;;;38.32;20.07;99122.13;6202014;23;20029;-78
2021/08/03 09:30:58;;;;;;;6.75;2.30;;;;;;;38.76;19.67;99131.00;6132164;23;20041;-81
2021/08/03 09:33:42;;;;;;;5.85;2.78;;;;;;;38.83;19.50;99109.91;6178077;23;20024;-80
2021/08/03 09:36:12;;;;;;;6.70;2.60;;;;;;;39.25;19.10;99121.75;6131034;23;20021;-79
2021/08/03 09:38:39;;;;;;;9.70;3.00;;;;;;;39.32;19.33;99124.94;6129174;23;20078;-81
2021/08/03 09:41:23;;;;;;;18.15;3.40;;;;;;;39.56;19.42;99126.56;6133940;23;20049;-79
2021/08/03 09:44:20;;;;;;;9.02;2.42;;;;;;;39.65;19.03;99110.69;6151916;23;20342;-83
2021/08/03 09:47:16;;;;;;;5.72;2.60;;;;;;;40.10;18.41;99121.78;6136994;23;20107;-80
2021/08/03 09:49:54;;;;;;;6.88;2.65;;;;;;;40.00;18.27;99120.06;6135488;23;20545;-80
2021/08/03 09:52:22;;;;;;;7.82;2.50;;;;;;;40.19;18.47;99131.03;6128857;23;20021;-80
2021/08/03 09:54:50;;;;;;;9.48;4.00;;;;;;;40.29;18.26;99110.34;6152362;23;20021;-80
2021/08/03 09:57:34;;;;;;;12.57;2.70;;;;;;;40.28;17.61;99098.31;6128803;23;20467;-81
2021/08/03 10:00:37;;;;;;;8.60;2.80;;;;;;;40.21;18.38;99120.38;6130691;23;20383;-82
2021/08/03 10:03:27;;;;;;;7.60;2.67;;;;;;;40.06;18.30;99103.97;6153267;23;20021;-81
2021/08/03 10:06:15;;;;;;;9.52;2.92;;;;;;;40.10;17.96;99112.53;6156551;23;20021;-80
2021/08/03 10:09:18;;;;;;;7.43;2.42;;;;;;;40.35;17.59;99097.81;6131270;23;20470;-79
2021/08/03 10:11:57;;;;;;;7.72;2.65;;;;;;;40.75;17.86;99112.56;6161056;23;20039;-80
2021/08/03 10:14:44;;;;;;;;;;;;;;;;;;;;;
2021/08/03 10:17:23;;;;;;;7.90;2.75;;;;;;;41.74;16.42;99098.63;6134921;23;20032;-80
2021/08/03 10:20:01;;;;;;;11.88;2.60;;;;;;;42.01;15.88;99098.56;6131711;23;20025;-82
2021/08/03 10:23:10;;;;;;;10.60;2.38;;;;;;;41.57;16.68;99101.50;6152925;23;20017;-80
2021/08/03 10:25:40;;;;;;;6.80;2.60;;;;;;;41.60;16.87;99100.84;6131584;23;20094;-81
2021/08/03 10:28:43;;;;;;;5.88;2.85;;;;;;;41.85;16.89;99076.66;6106650;23;20032;-81
2021/08/03 10:31:37;;;;;;;6.28;2.47;;;;;;;42.39;15.20;99087.28;6110269;23;20074;-83
2021/08/03 10:35:02;;;;;;;8.43;2.60;;;;;;;42.62;15.79;99066.16;6161271;23;20049;-82
2021/08/03 10:38:12;;;;;;;13.98;3.10;;;;;;;42.84;14.65;99064.16;6093047;23;20020;-82
2021/08/03 10:40:57;;;;;;;7.25;2.58;;;;;;;42.24;15.04;99077.44;6154380;23;20398;-81
2021/08/03 10:43:48;;;;;;;4.32;2.42;;;;;;;42.59;15.14;99078.09;6152368;23;20040;-79
2021/08/03 10:46:22;;;;;;;5.32;2.30;;;;;;;42.70;15.12;99066.47;6130834;23;20467;-82
2021/08/03 10:48:55;;;;;;;5.85;2.95;;;;;;;43.23;15.11;99067.66;6129028;23;20070;-82
2021/08/03 10:51:24;;;;;;;5.90;2.42;;;;;;;43.40;14.79;99059.81;6153131;23;20095;-81
2021/08/03 10:54:16;;;;;;;6.03;2.88;;;;;;;43.38;14.28;99052.94;6177017;23;20021;-83
2021/08/03 10:57:15;;;;;;;5.13;2.20;;;;;;;43.06;14.24;99057.34;6106687;23;20017;-83
2021/08/03 10:59:57;;;;;;;3.25;2.10;;;;;;;42.91;14.78;99036.31;6177348;23;20025;-84
2021/08/03 11:02:56;;;;;;;13.95;2.22;;;;;;;42.37;14.96;99056.75;6135799;23;20017;-82
2021/08/03 11:05:30;;;;;;;11.00;2.80;;;;;;;42.87;15.44;99032.56;6154122;23;20452;-78
2021/08/03 11:08:35;;;;;;;6.88;2.55;;;;;;;43.51;14.77;99040.53;6133032;23;20017;-79
2021/08/03 11:11:11;;;;;;;9.80;2.45;;;;;;;44.33;14.12;99036.84;6128687;23;20103;-81
2021/08/03 11:14:10;;;;;;;6.20;2.47;;;;;;;44.83;13.93;99049.63;6130317;23;20152;-82
2021/08/03 11:16:43;;;;;;;9.13;2.17;;;;;;;45.44;13.30;99040.94;6153181;23;20017;-80
2021/08/03 11:19:28;;;;;;;5.93;2.28;;;;;;;45.23;13.28;99034.66;6153568;23;20483;-81
2021/08/03 11:21:58;;;;;;;9.25;2.60;;;;;;;45.15;13.72;99028.00;6153278;23;20023;-80
2021/08/03 11:24:37;;;;;;;8.18;2.50;;;;;;;45.78;13.05;99041.41;6082755;23;20021;-85
2021/08/03 11:27:33;;;;;;;;;;;;;;;;;;;;;
2021/08/03 11:33:10;;;;;;;7.40;2.22;;;;;;;46.22;12.64;99016.66;6127915;23;20024;-81
2021/08/03 11:35:38;;;;;;;11.23;2.35;;;;;;;46.39;12.63;99026.75;6106387;23;20062;-81
2021/08/03 11:38:08;;;;;;;9.43;2.30;;;;;;;46.55;11.95;99025.84;6103669;23;20103;-80
2021/08/03 11:40:44;;;;;;;9.30;2.45;;;;;;;47.00;12.19;99015.94;6109948;23;20065;-81
2021/08/03 11:43:10;;;;;;;9.30;2.42;;;;;;;47.29;12.04;99008.81;6079501;23;20032;-80
2021/08/03 11:45:40;;;;;;;5.32;2.15;;;;;;;46.83;11.31;99006.69;6080248;23;20049;-80
2021/08/03 11:48:23;;;;;;;7.82;2.33;;;;;;;46.68;12.27;99007.56;6154774;23;20448;-82
2021/08/03 11:50:50;;;;;;;8.30;2.45;;;;;;;46.58;12.38;99014.66;6129001;23;20017;-81
2021/08/03 11:53:19;;;;;;;13.20;2.97;;;;;;;46.87;11.93;98999.09;6080256;23;20025;-81
2021/08/03 11:55:47;;;;;;;6.13;2.25;;;;;;;47.53;11.44;99010.47;6128166;23;20317;-81
2021/08/03 11:58:34;;;;;;;9.90;2.35;;;;;;;48.09;10.96;99006.97;6079098;23;20017;-82
2021/08/03 12:01:51;;;;;;;5.50;2.42;;;;;;;48.28;11.08;99012.50;6089688;23;20028;-83
2021/08/03 12:04:57;;;;;;;4.03;2.25;;;;;;;48.55;11.05;99003.97;6157587;23;20416;-82
2021/08/03 12:08:12;;;;;;;;;;;;;;;;;;;;;
2021/08/03 12:10:51;;;;;;;13.60;2.85;;;;;;;48.08;11.42;98996.84;6155655;23;20022;-80
2021/08/03 12:14:08;;;;;;;6.65;2.20;;;;;;;48.06;10.79;98991.53;6117038;23;20021;-83
2021/08/03 12:16:44;;;;;;;9.70;2.72;;;;;;;47.83;11.38;98983.06;6153066;23;20017;-81
2021/08/03 12:19:35;;;;;;;11.55;2.90;;;;;;;48.48;11.08;98972.69;6106222;23;20100;-84
2021/08/03 12:22:24;;;;;;;11.77;2.40;;;;;;;48.67;10.83;98986.69;6107022;23;20017;-81
2021/08/03 12:25:11;;;;;;;9.63;2.30;;;;;;;48.99;10.36;98972.09;6115821;23;20048;-81
2021/08/03 12:27:58;;;;;;;8.43;2.45;;;;;;;49.28;10.33;98970.38;6140981;23;20027;-79
2021/08/03 12:30:37;;;;;;;5.50;2.08;;;;;;;49.83;9.96;98979.75;6103798;23;20021;-81
2021/08/03 12:33:15;;;;;;;6.90;2.70;;;;;;;49.64;10.06;98984.91;6176042;23;20392;-80
2021/08/03 12:36:12;;;;;;;;;;;;;;;;;;;;;
2021/08/03 12:39:07;;;;;;;12.52;3.33;;;;;;;49.41;10.22;98973.72;6156586;23;20033;-78
2021/08/03 12:41:33;;;;;;;6.70;2.67;;;;;;;49.06;10.44;98957.97;6176581;23;20096;-80
2021/08/03 12:44:01;;;;;;;10.63;2.70;;;;;;;49.06;10.21;98957.97;6102564;23;20467;-80